createdAt,value
2019-03-30T00:01:31.716Z,28.17
2019-03-30T00:03:57.820Z,23.80
2019-03-30T00:06:23.939Z,22.60
2019-03-30T00:08:50.064Z,26.07
2019-03-30T00:11:16.270Z,30.27
2019-03-30T00:13:42.393Z,29.57
2019-03-30T00:16:08.520Z,31.07
2019-03-30T00:18:34.641Z,26.75
2019-03-30T00:21:00.756Z,26.20
2019-03-30T00:23:26.951Z,29.50
2019-03-30T00:25:53.105Z,24.82
2019-03-30T00:28:19.230Z,30.20
2019-03-30T00:30:45.435Z,24.92
2019-03-30T00:33:11.554Z,25.00
2019-03-30T00:35:37.637Z,28.30
2019-03-30T00:38:03.879Z,29.42
2019-03-30T00:40:29.977Z,27.35
2019-03-30T00:42:56.099Z,30.32
2019-03-30T00:45:22.471Z,31.35
2019-03-30T00:47:48.807Z,26.33
2019-03-30T00:50:14.909Z,25.30
2019-03-30T00:52:41.009Z,24.40
2019-03-30T00:55:07.244Z,25.45
2019-03-30T00:57:33.354Z,27.60
2019-03-30T00:59:59.556Z,27.15
2019-03-30T01:02:25.742Z,36.23
2019-03-30T01:04:51.857Z,29.32
2019-03-30T01:07:17.951Z,27.45
2019-03-30T01:09:44.093Z,20.43
2019-03-30T01:12:10.715Z,26.55
2019-03-30T01:14:36.950Z,27.10
2019-03-30T01:17:03.138Z,23.47
2019-03-30T01:19:29.272Z,23.05
2019-03-30T01:21:56.282Z,24.90
2019-03-30T01:24:22.584Z,25.40
2019-03-30T01:26:48.794Z,25.92
2019-03-30T01:29:14.943Z,24.05
2019-03-30T01:31:41.132Z,31.20
2019-03-30T01:34:07.321Z,25.50
2019-03-30T01:36:33.449Z,27.22
2019-03-30T01:38:59.597Z,23.35
2019-03-30T01:41:25.786Z,22.22
2019-03-30T01:43:51.884Z,26.52
2019-03-30T01:46:18.006Z,23.65
2019-03-30T01:48:44.219Z,27.42
2019-03-30T01:51:10.491Z,25.88
2019-03-30T01:53:36.586Z,27.80
2019-03-30T01:56:02.684Z,24.77
2019-03-30T01:58:28.801Z,35.17
2019-03-30T02:00:54.905Z,33.98
2019-03-30T02:03:21.034Z,25.00
2019-03-30T02:05:47.224Z,25.02
2019-03-30T02:08:13.338Z,23.47
2019-03-30T02:10:41.343Z,25.88
2019-03-30T02:13:07.683Z,28.42
2019-03-30T02:15:33.920Z,24.72
2019-03-30T02:18:00.137Z,33.33
2019-03-30T02:20:40.799Z,28.55
2019-03-30T02:23:07.226Z,19.87
2019-03-30T02:25:33.442Z,21.15
2019-03-30T02:27:59.556Z,20.95
2019-03-30T02:30:25.659Z,37.93
2019-03-30T02:32:51.792Z,25.68
2019-03-30T02:35:18.015Z,19.92
2019-03-30T02:37:44.107Z,21.65
2019-03-30T02:40:10.718Z,17.15
2019-03-30T02:42:36.834Z,21.05
2019-03-30T02:45:04.835Z,22.45
2019-03-30T02:47:31.042Z,19.42
2019-03-30T02:49:57.130Z,18.40
2019-03-30T02:52:23.364Z,17.70
2019-03-30T02:54:49.562Z,16.32
2019-03-30T02:57:15.781Z,22.22
2019-03-30T02:59:41.883Z,18.27
2019-03-30T03:02:07.995Z,17.10
2019-03-30T03:04:34.103Z,18.25
2019-03-30T03:07:00.223Z,18.10
2019-03-30T03:09:26.343Z,19.98
2019-03-30T03:11:52.445Z,17.35
2019-03-30T03:14:18.547Z,18.87
2019-03-30T03:16:44.676Z,21.80
2019-03-30T03:19:10.911Z,18.02
2019-03-30T03:21:37.115Z,18.20
2019-03-30T03:24:03.235Z,20.40
2019-03-30T03:26:29.442Z,14.25
2019-03-30T03:28:55.562Z,14.60
2019-03-30T03:31:21.788Z,19.42
2019-03-30T03:33:48.088Z,20.43
2019-03-30T03:36:14.287Z,18.35
2019-03-30T03:38:40.411Z,18.40
2019-03-30T03:41:07.062Z,15.40
2019-03-30T03:43:33.178Z,15.58
2019-03-30T03:45:59.299Z,16.37
2019-03-30T03:48:25.388Z,15.85
2019-03-30T03:50:58.402Z,16.02
2019-03-30T03:53:24.810Z,15.20
2019-03-30T03:55:52.140Z,14.33
2019-03-30T03:58:22.063Z,16.42
2019-03-30T04:00:51.170Z,12.70
2019-03-30T04:03:17.510Z,13.65
2019-03-30T04:05:45.336Z,10.10
2019-03-30T04:08:12.062Z,13.25
2019-03-30T04:10:38.861Z,14.63
2019-03-30T04:13:07.382Z,12.68
2019-03-30T04:15:33.701Z,12.78
2019-03-30T04:17:59.822Z,14.63
2019-03-30T04:20:26.019Z,16.15
2019-03-30T04:22:52.940Z,15.32
2019-03-30T04:25:19.083Z,16.80
2019-03-30T04:27:45.202Z,10.45
2019-03-30T04:30:11.637Z,13.18
2019-03-30T04:32:37.819Z,14.38
2019-03-30T04:35:04.950Z,15.00
2019-03-30T04:37:31.068Z,11.83
2019-03-30T04:39:57.192Z,11.15
2019-03-30T04:42:23.287Z,12.07
2019-03-30T04:44:49.400Z,9.23
2019-03-30T04:47:15.595Z,9.00
2019-03-30T04:49:41.793Z,7.05
2019-03-30T04:52:08.128Z,10.23
2019-03-30T04:54:34.249Z,14.43
2019-03-30T04:57:00.482Z,13.58
2019-03-30T04:59:26.581Z,11.83
2019-03-30T05:01:52.702Z,13.18
2019-03-30T05:04:18.799Z,13.22
2019-03-30T05:06:45.068Z,14.55
2019-03-30T05:09:11.254Z,11.68
2019-03-30T05:11:37.400Z,10.50
2019-03-30T05:14:03.494Z,11.63
2019-03-30T05:16:29.604Z,13.38
2019-03-30T05:18:55.733Z,13.35
2019-03-30T05:21:21.924Z,15.10
2019-03-30T05:23:48.155Z,22.17
2019-03-30T05:26:14.277Z,14.00
2019-03-30T05:28:40.402Z,17.67
2019-03-30T05:31:06.637Z,17.05
2019-03-30T05:33:32.849Z,12.10
2019-03-30T05:35:59.071Z,16.17
2019-03-30T05:38:25.296Z,13.90
2019-03-30T05:40:51.485Z,14.23
2019-03-30T05:43:17.579Z,17.50
2019-03-30T05:45:43.769Z,13.40
2019-03-30T05:48:10.084Z,14.40
2019-03-30T05:50:36.302Z,17.07
2019-03-30T05:53:02.414Z,17.07
2019-03-30T05:55:28.508Z,14.23
2019-03-30T05:57:54.710Z,14.45
2019-03-30T06:00:22.709Z,10.90
2019-03-30T06:02:48.829Z,15.93
2019-03-30T06:05:14.927Z,19.87
2019-03-30T06:07:41.051Z,18.12
2019-03-30T06:10:07.365Z,15.00
2019-03-30T06:12:33.478Z,13.20
2019-03-30T06:14:59.691Z,13.43
2019-03-30T06:17:25.818Z,13.32
2019-03-30T06:19:51.939Z,13.62
2019-03-30T06:22:18.092Z,11.45
2019-03-30T06:24:44.311Z,10.53
2019-03-30T06:27:10.439Z,10.93
2019-03-30T06:29:36.661Z,13.90
2019-03-30T06:32:03.857Z,12.55
2019-03-30T06:34:29.983Z,12.18
2019-03-30T06:36:56.175Z,13.93
2019-03-30T06:39:22.383Z,11.75
2019-03-30T06:41:48.591Z,10.88
2019-03-30T06:44:14.709Z,9.98
2019-03-30T06:46:40.853Z,12.50
2019-03-30T06:49:07.052Z,11.03
2019-03-30T06:51:33.180Z,15.75
2019-03-30T06:53:59.271Z,12.78
2019-03-30T06:56:25.395Z,18.02
2019-03-30T06:58:51.523Z,14.70
2019-03-30T07:01:18.238Z,13.50
2019-03-30T07:03:44.955Z,15.05
2019-03-30T07:06:11.925Z,13.35
2019-03-30T07:08:41.243Z,13.75
2019-03-30T07:11:20.513Z,12.98
2019-03-30T07:13:38.533Z,14.03
2019-03-30T07:16:08.199Z,15.58
2019-03-30T07:18:35.134Z,13.45
2019-03-30T07:21:01.239Z,12.43
2019-03-30T07:26:01.055Z,14.25
2019-03-30T07:28:47.419Z,14.55
2019-03-30T07:31:13.610Z,11.48
2019-03-30T07:33:39.724Z,13.10
2019-03-30T07:36:05.843Z,12.80
2019-03-30T07:38:32.079Z,14.47
2019-03-30T07:40:58.220Z,11.12
2019-03-30T07:43:24.334Z,11.08
2019-03-30T08:51:47.164Z,11.48
2019-03-30T08:54:15.883Z,8.20
2019-03-30T09:10:39.472Z,18.42
2019-03-30T09:15:04.540Z,11.15
2019-03-30T09:17:30.674Z,16.75
2019-03-30T09:19:56.862Z,14.03
2019-03-30T09:22:22.999Z,15.20
2019-03-30T09:24:49.207Z,12.93
2019-03-30T09:27:15.404Z,21.55
2019-03-30T09:29:41.517Z,16.23
2019-03-30T09:32:14.478Z,13.32
2019-03-30T09:34:35.635Z,17.73
2019-03-30T09:37:01.752Z,22.48
2019-03-30T09:39:27.877Z,14.23
2019-03-30T09:41:54.046Z,13.38
2019-03-30T09:44:20.166Z,19.87
2019-03-30T09:46:46.385Z,21.97
2019-03-30T09:49:12.503Z,18.62
2019-03-30T09:51:38.752Z,16.97
2019-03-30T09:54:04.875Z,17.23
2019-03-30T09:56:31.003Z,27.87
2019-03-30T09:58:57.200Z,16.87
2019-03-30T10:01:23.314Z,20.77
2019-03-30T10:03:49.424Z,16.05
2019-03-30T10:06:15.553Z,23.25
2019-03-30T10:08:41.787Z,16.62
2019-03-30T10:11:07.905Z,14.13
2019-03-30T10:13:34.020Z,18.67
2019-03-30T10:16:00.326Z,21.40
2019-03-30T10:18:26.516Z,15.60
2019-03-30T10:20:52.632Z,18.30
2019-03-30T10:23:18.742Z,13.03
2019-03-30T10:25:44.868Z,20.25
2019-03-30T10:28:11.003Z,24.55
2019-03-30T10:30:37.203Z,16.48
2019-03-30T10:33:03.311Z,17.98
2019-03-30T10:35:29.527Z,14.68
2019-03-30T10:37:55.632Z,22.35
2019-03-30T10:40:21.876Z,22.62
2019-03-30T10:42:48.063Z,21.07
2019-03-30T10:45:14.404Z,15.53
2019-03-30T10:47:40.498Z,14.53
2019-03-30T10:50:07.939Z,14.93
2019-03-30T10:52:37.890Z,23.00
2019-03-30T10:55:05.187Z,17.37
2019-03-30T10:57:31.337Z,17.40
2019-03-30T10:59:57.429Z,23.67
2019-03-30T11:02:23.539Z,17.80
2019-03-30T11:04:49.680Z,15.60
2019-03-30T11:07:15.829Z,18.15
2019-03-30T11:09:42.158Z,13.10
2019-03-30T11:12:08.387Z,16.23
2019-03-30T11:14:37.823Z,22.87
2019-03-30T11:17:04.031Z,16.67
2019-03-30T11:19:30.245Z,16.42
2019-03-30T11:21:56.454Z,15.20
2019-03-30T11:24:22.644Z,21.87
2019-03-30T11:26:48.822Z,16.32
2019-03-30T11:29:14.936Z,19.62
2019-03-30T11:31:41.086Z,20.85
2019-03-30T11:34:07.579Z,19.65
2019-03-30T11:36:33.818Z,21.20
2019-03-30T11:39:00.011Z,14.18
2019-03-30T11:41:26.332Z,11.18
2019-03-30T11:43:52.493Z,22.67
2019-03-30T11:46:24.010Z,17.90
2019-03-30T11:48:50.220Z,21.45
2019-03-30T11:51:16.338Z,25.08
2019-03-30T11:53:42.454Z,24.95
2019-03-30T11:56:08.574Z,17.32
2019-03-30T11:58:34.775Z,13.88
2019-03-30T12:01:00.945Z,28.65
2019-03-30T12:03:27.144Z,18.23
2019-03-30T12:05:53.391Z,19.05
2019-03-30T12:08:19.623Z,19.75
2019-03-30T12:10:45.963Z,20.80
2019-03-30T12:13:12.114Z,17.95
2019-03-30T12:15:38.401Z,24.67
2019-03-30T12:18:04.635Z,13.98
2019-03-30T12:20:30.835Z,14.83
2019-03-30T12:22:56.955Z,18.52
2019-03-30T12:25:34.807Z,26.93
2019-03-30T12:27:51.460Z,24.25
2019-03-30T12:30:17.678Z,19.05
2019-03-30T12:32:43.894Z,26.77
2019-03-30T12:35:10.312Z,16.17
2019-03-30T12:37:36.521Z,29.27
2019-03-30T12:40:04.560Z,29.80
2019-03-30T12:42:30.801Z,20.32
2019-03-30T12:44:56.927Z,25.12
2019-03-30T12:47:23.058Z,22.05
2019-03-30T12:49:49.321Z,15.98
2019-03-30T12:52:15.432Z,24.65
2019-03-30T12:54:41.558Z,21.75
2019-03-30T12:57:07.678Z,20.02
2019-03-30T12:59:34.030Z,33.20
2019-03-30T13:02:00.216Z,34.18
2019-03-30T13:04:26.297Z,17.48
2019-03-30T13:06:52.427Z,18.50
2019-03-30T13:09:18.538Z,23.25
2019-03-30T13:11:44.670Z,34.80
2019-03-30T13:14:11.339Z,22.50
2019-03-30T13:16:37.618Z,31.17
2019-03-30T13:19:03.789Z,27.50
2019-03-30T13:21:32.351Z,20.50
2019-03-30T13:23:58.091Z,25.60
2019-03-30T13:26:24.248Z,31.42
2019-03-30T13:28:50.454Z,25.82
2019-03-30T13:31:16.648Z,30.00
2019-03-30T13:33:42.773Z,39.98
2019-03-30T13:36:10.703Z,29.10
2019-03-30T13:38:37.087Z,23.95
2019-03-30T13:41:03.198Z,28.55
2019-03-30T13:43:29.316Z,25.10
2019-03-30T13:45:55.429Z,28.60
2019-03-30T13:48:21.544Z,30.77
2019-03-30T13:50:47.647Z,32.45
2019-03-30T13:53:13.759Z,23.27
2019-03-30T13:55:39.855Z,29.35
2019-03-30T13:58:05.978Z,27.85
2019-03-30T14:00:32.087Z,27.05
2019-03-30T14:02:58.213Z,44.83
2019-03-30T14:05:24.355Z,37.20
2019-03-30T14:07:50.877Z,28.42
2019-03-30T14:10:17.091Z,34.30
2019-03-30T14:12:43.192Z,28.57
2019-03-30T14:15:09.767Z,27.60
2019-03-30T14:17:35.926Z,27.52
2019-03-30T14:20:04.783Z,19.95
2019-03-30T14:22:30.893Z,30.17
2019-03-30T14:24:57.011Z,24.63
2019-03-30T14:27:23.627Z,25.15
2019-03-30T14:29:50.029Z,32.67
2019-03-30T14:32:16.153Z,37.17
2019-03-30T14:34:42.495Z,36.90
2019-03-30T14:37:08.727Z,31.45
2019-03-30T14:39:34.867Z,26.70
2019-03-30T14:42:01.006Z,44.27
2019-03-30T14:44:27.226Z,33.88
2019-03-30T14:46:53.428Z,38.45
2019-03-30T14:49:19.568Z,34.50
2019-03-30T14:51:45.764Z,32.67
2019-03-30T14:54:12.020Z,38.92
2019-03-30T14:56:45.329Z,35.65
2019-03-30T14:59:10.350Z,36.10
2019-03-30T15:01:34.304Z,36.03
2019-03-30T15:04:00.528Z,48.02
2019-03-30T15:06:26.669Z,58.60
2019-03-30T15:08:52.842Z,31.87
2019-03-30T15:11:18.951Z,37.80
2019-03-30T15:13:45.063Z,47.98
2019-03-30T15:16:11.209Z,52.85
2019-03-30T15:18:37.535Z,48.92
2019-03-30T15:21:03.643Z,46.02
2019-03-30T15:23:29.751Z,47.50
2019-03-30T15:25:55.890Z,51.35
2019-03-30T15:28:22.079Z,39.58
2019-03-30T15:30:48.221Z,41.13
2019-03-30T15:33:14.525Z,50.30
2019-03-30T15:35:40.739Z,44.40
2019-03-30T15:38:08.380Z,46.40
2019-03-30T15:40:34.506Z,44.00
2019-03-30T15:43:00.602Z,52.73
2019-03-30T15:45:26.730Z,51.37
2019-03-30T15:47:52.882Z,38.63
2019-03-30T15:50:19.444Z,47.50
2019-03-30T15:52:45.568Z,56.73
2019-03-30T15:55:11.786Z,52.43
2019-03-30T15:57:38.416Z,51.28
2019-03-30T16:00:11.151Z,50.95
2019-03-30T16:02:37.400Z,53.92
2019-03-30T16:05:05.902Z,56.58
2019-03-30T16:07:32.087Z,49.20
2019-03-30T16:09:58.315Z,47.23
2019-03-30T16:12:24.947Z,57.10
2019-03-30T16:14:51.163Z,59.58
2019-03-30T16:17:17.440Z,40.98
2019-03-30T16:19:43.878Z,40.38
2019-03-30T16:22:10.190Z,33.15
2019-03-30T16:24:36.399Z,40.85
2019-03-30T16:27:03.107Z,44.33
2019-03-30T16:29:29.312Z,50.05
2019-03-30T16:31:55.530Z,43.85
2019-03-30T16:34:21.649Z,30.30
2019-03-30T16:36:47.778Z,37.42
2019-03-30T16:39:13.984Z,43.08
2019-03-30T16:41:40.235Z,48.75
2019-03-30T16:44:06.455Z,41.92
2019-03-30T16:46:32.577Z,44.58
2019-03-30T16:48:58.688Z,51.05
2019-03-30T16:51:24.807Z,40.83
2019-03-30T16:53:50.913Z,45.63
2019-03-30T16:56:17.228Z,54.70
2019-03-30T16:58:43.418Z,49.58
2019-03-30T17:01:09.562Z,39.55
2019-03-30T17:03:35.696Z,31.55
2019-03-30T17:06:01.804Z,48.38
2019-03-30T17:08:27.887Z,35.23
2019-03-30T17:10:54.011Z,38.70
2019-03-30T17:13:20.153Z,28.20
2019-03-30T17:15:46.463Z,37.53
2019-03-30T17:18:12.564Z,32.63
2019-03-30T17:20:38.665Z,27.07
2019-03-30T17:23:04.772Z,29.35
2019-03-30T17:25:30.862Z,39.88
2019-03-30T17:27:58.970Z,33.70
2019-03-30T17:30:25.427Z,19.95
2019-03-30T17:32:51.539Z,30.17
2019-03-30T17:35:17.947Z,22.13
2019-03-30T17:37:44.149Z,25.55
2019-03-30T17:40:10.763Z,33.48
2019-03-30T17:42:39.308Z,35.10
2019-03-30T17:45:07.402Z,27.20
2019-03-30T17:47:33.605Z,40.67
2019-03-30T17:49:59.726Z,27.80
2019-03-30T17:52:25.955Z,31.05
2019-03-30T17:54:52.126Z,29.77
2019-03-30T17:57:18.527Z,24.20
2019-03-30T17:59:44.744Z,21.02
2019-03-30T18:02:10.871Z,30.05
2019-03-30T18:04:38.906Z,28.87
2019-03-30T18:07:05.051Z,24.52
2019-03-30T18:09:31.151Z,20.27
2019-03-30T18:11:57.310Z,25.12
2019-03-30T18:14:23.416Z,31.12
2019-03-30T18:16:49.525Z,30.23
2019-03-30T18:19:15.661Z,29.48
2019-03-30T18:21:41.809Z,30.45
2019-03-30T18:24:08.005Z,19.57
2019-03-30T18:26:34.090Z,31.27
2019-03-30T18:29:00.231Z,20.52
2019-03-30T18:31:26.524Z,23.27
2019-03-30T18:33:53.033Z,16.65
2019-03-30T18:36:19.451Z,24.63
2019-03-30T18:38:45.975Z,31.07
2019-03-30T18:41:12.082Z,19.77
2019-03-30T18:43:38.290Z,23.42
2019-03-30T18:46:04.512Z,30.75
2019-03-30T18:48:30.619Z,25.12
2019-03-30T18:50:57.623Z,19.52
2019-03-30T18:53:23.747Z,43.33
2019-03-30T18:55:49.852Z,29.77
2019-03-30T18:58:16.167Z,37.03
2019-03-30T19:00:42.485Z,28.85
2019-03-30T19:03:08.978Z,20.62
2019-03-30T19:05:35.271Z,29.23
2019-03-30T19:08:02.008Z,27.67
2019-03-30T19:10:28.184Z,25.72
2019-03-30T19:12:54.306Z,18.55
2019-03-30T19:15:20.396Z,17.00
2019-03-30T19:17:46.509Z,29.67
2019-03-30T19:20:12.716Z,21.48
2019-03-30T19:22:38.813Z,15.78
2019-03-30T19:25:05.838Z,18.92
2019-03-30T19:27:32.247Z,23.62
2019-03-30T19:29:58.429Z,31.15
2019-03-30T19:32:24.599Z,25.23
2019-03-30T19:34:50.783Z,25.95
2019-03-30T19:37:16.895Z,33.45
2019-03-30T19:39:43.010Z,28.95
2019-03-30T19:42:09.122Z,29.40
2019-03-30T19:44:35.240Z,35.28
2019-03-30T19:47:01.368Z,31.07
2019-03-30T19:49:27.461Z,27.13
2019-03-30T19:51:53.571Z,29.45
2019-03-30T19:54:19.661Z,23.18
2019-03-30T19:56:45.780Z,30.27
2019-03-30T19:59:14.087Z,25.17
2019-03-30T20:01:43.166Z,25.15
2019-03-30T20:04:09.458Z,25.27
2019-03-30T20:06:35.570Z,25.48
2019-03-30T20:09:04.082Z,18.65
2019-03-30T20:11:30.170Z,25.32
2019-03-30T20:13:56.309Z,38.90
2019-03-30T20:16:22.425Z,25.37
2019-03-30T20:18:48.518Z,30.43
2019-03-30T20:21:14.642Z,24.32
2019-03-30T20:23:40.729Z,31.33
2019-03-30T20:26:06.851Z,26.80
2019-03-30T20:28:32.941Z,28.60
2019-03-30T20:30:59.359Z,20.92
2019-03-30T20:33:25.450Z,34.92
2019-03-30T20:35:51.596Z,31.73
2019-03-30T20:38:17.782Z,18.60
2019-03-30T20:40:44.018Z,24.70
2019-03-30T20:43:10.115Z,22.20
2019-03-30T20:45:36.200Z,21.85
2019-03-30T20:48:02.461Z,18.42
2019-03-30T20:50:28.656Z,21.15
2019-03-30T20:52:54.897Z,21.52
2019-03-30T20:55:21.052Z,17.45
2019-03-30T20:57:47.688Z,21.52
2019-03-30T21:00:14.848Z,18.57
2019-03-30T21:02:40.997Z,23.35
2019-03-30T21:05:08.397Z,29.10
2019-03-30T21:07:34.491Z,31.57
2019-03-30T21:10:00.715Z,24.55
2019-03-30T21:12:26.825Z,33.02
2019-03-30T21:14:52.967Z,30.50
2019-03-30T21:17:19.099Z,22.52
2019-03-30T21:19:45.319Z,31.82
2019-03-30T21:22:11.436Z,35.78
2019-03-30T21:24:37.530Z,35.45
2019-03-30T21:27:03.841Z,27.93
2019-03-30T21:29:29.943Z,35.28
2019-03-30T21:31:56.037Z,35.00
2019-03-30T21:34:22.246Z,24.77
2019-03-30T21:36:48.431Z,25.75
2019-03-30T21:39:14.664Z,22.77
2019-03-30T21:41:40.764Z,26.60
2019-03-30T21:44:21.114Z,24.77
2019-03-30T21:46:34.899Z,33.18
2019-03-30T21:49:01.297Z,26.73
2019-03-30T21:51:27.484Z,32.00
2019-03-30T21:53:53.695Z,31.33
2019-03-30T21:56:19.853Z,26.52
2019-03-30T21:58:46.081Z,27.60
2019-03-30T22:01:12.293Z,27.25
2019-03-30T22:03:38.479Z,29.98
2019-03-30T22:06:04.718Z,28.07
2019-03-30T22:08:31.313Z,46.65
2019-03-30T22:10:57.417Z,35.73
2019-03-30T22:13:23.528Z,30.75
2019-03-30T22:15:49.643Z,24.02
2019-03-30T22:18:15.750Z,18.48
2019-03-30T22:20:41.879Z,31.65
2019-03-30T22:23:08.204Z,23.27
2019-03-30T22:25:34.304Z,37.65
2019-03-30T22:28:01.000Z,31.60
2019-03-30T22:30:27.147Z,35.00
2019-03-30T22:32:53.365Z,30.48
2019-03-30T22:35:19.500Z,32.33
2019-03-30T22:37:45.598Z,31.35
2019-03-30T22:40:11.820Z,31.85
2019-03-30T22:42:38.041Z,35.75
2019-03-30T22:45:04.650Z,33.67
2019-03-30T22:47:30.782Z,40.90
2019-03-30T22:49:56.933Z,48.23
2019-03-30T22:52:23.102Z,34.23
2019-03-30T22:54:49.250Z,58.65
2019-03-30T22:57:15.378Z,45.70
2019-03-30T22:59:41.472Z,57.60
2019-03-30T23:02:07.663Z,68.90
2019-03-30T23:04:36.194Z,55.33
2019-03-30T23:07:02.587Z,58.55
2019-03-30T23:09:28.783Z,60.70
2019-03-30T23:11:54.886Z,80.60
2019-03-30T23:14:21.023Z,62.48
2019-03-30T23:16:47.124Z,64.00
2019-03-30T23:19:13.332Z,61.70
2019-03-30T23:21:39.423Z,59.45
2019-03-30T23:24:05.555Z,62.20
2019-03-30T23:26:31.673Z,94.60
2019-03-30T23:28:59.499Z,82.17
2019-03-30T23:31:25.923Z,110.03
2019-03-30T23:33:52.042Z,74.10
2019-03-30T23:36:18.187Z,78.15
2019-03-30T23:38:44.291Z,62.43
2019-03-30T23:41:10.400Z,85.47
2019-03-30T23:43:36.506Z,81.37
2019-03-30T23:46:02.807Z,68.05
2019-03-30T23:48:28.926Z,80.35
2019-03-30T23:50:56.731Z,75.67
2019-03-30T23:53:22.836Z,64.20
2019-03-30T23:55:48.958Z,73.40
2019-03-30T23:58:15.073Z,61.75
